createdAt,value
2022-10-03T00:01:20.984Z,2.98
2022-10-03T00:04:04.056Z,2.87
2022-10-03T00:09:45.871Z,2.80
2022-10-03T00:12:46.031Z,3.10
2022-10-03T00:15:33.606Z,2.90
2022-10-03T00:18:31.749Z,3.10
2022-10-03T00:21:09.457Z,2.62
2022-10-03T00:23:45.567Z,3.02
2022-10-03T00:26:40.940Z,2.83
2022-10-03T00:29:31.729Z,2.80
2022-10-03T00:32:27.399Z,3.00
2022-10-03T00:35:02.007Z,3.17
2022-10-03T00:37:33.626Z,2.90
2022-10-03T00:40:17.673Z,3.25
2022-10-03T00:43:05.846Z,3.08
2022-10-03T00:45:54.470Z,2.95
2022-10-03T00:48:37.973Z,2.95
2022-10-03T00:51:44.631Z,3.12
2022-10-03T00:54:40.617Z,3.15
2022-10-03T00:57:31.730Z,3.00
2022-10-03T01:00:27.614Z,3.42
2022-10-03T01:03:02.014Z,3.42
2022-10-03T01:05:59.001Z,3.27
2022-10-03T01:09:06.787Z,3.37
2022-10-03T01:11:47.308Z,3.85
2022-10-03T01:14:31.148Z,3.67
2022-10-03T01:17:10.434Z,3.33
2022-10-03T01:19:43.560Z,3.50
2022-10-03T01:22:38.432Z,3.70
2022-10-03T01:25:19.593Z,4.67
2022-10-03T01:28:18.116Z,3.37
2022-10-03T01:30:55.627Z,3.45
2022-10-03T01:33:37.623Z,3.05
2022-10-03T01:36:15.912Z,3.27
2022-10-03T01:38:56.636Z,4.30
2022-10-03T01:41:40.350Z,3.20
2022-10-03T01:47:22.747Z,3.45
2022-10-03T01:50:09.028Z,3.35
2022-10-03T01:52:40.729Z,3.10
2022-10-03T01:55:33.148Z,3.60
2022-10-03T01:58:31.983Z,3.08
2022-10-03T02:01:03.714Z,3.33
2022-10-03T02:03:56.084Z,3.72
2022-10-03T02:06:47.241Z,4.20
2022-10-03T02:09:38.536Z,3.12
2022-10-03T02:12:10.505Z,3.92
2022-10-03T02:14:50.937Z,3.87
2022-10-03T02:17:27.135Z,3.80
2022-10-03T02:20:04.288Z,4.28
2022-10-03T02:22:38.856Z,3.25
2022-10-03T02:25:27.162Z,3.52
2022-10-03T02:28:01.654Z,3.47
2022-10-03T02:30:49.619Z,3.83
2022-10-03T02:33:45.430Z,4.00
2022-10-03T02:36:34.982Z,3.75
2022-10-03T02:39:40.879Z,4.20
2022-10-03T02:42:37.060Z,4.17
2022-10-03T02:45:23.482Z,4.00
2022-10-03T02:48:30.631Z,3.98
2022-10-03T02:50:59.433Z,4.20
2022-10-03T02:53:36.694Z,4.25
2022-10-03T02:56:11.116Z,3.95
2022-10-03T02:58:54.611Z,3.72
2022-10-03T03:01:53.029Z,3.98
2022-10-03T03:04:56.657Z,4.45
2022-10-03T03:08:00.861Z,4.03
2022-10-03T03:11:01.273Z,3.70
2022-10-03T03:13:59.195Z,4.28
2022-10-03T03:16:36.581Z,4.20
2022-10-03T03:19:37.102Z,4.05
2022-10-03T03:22:11.674Z,4.67
2022-10-03T03:24:51.699Z,4.50
2022-10-03T03:27:38.483Z,4.22
2022-10-03T03:30:21.911Z,4.45
2022-10-03T03:33:05.149Z,4.72
2022-10-03T03:35:36.774Z,4.83
2022-10-03T03:38:08.386Z,4.80
2022-10-03T03:40:42.784Z,4.22
2022-10-03T03:43:34.492Z,4.95
2022-10-03T03:46:33.091Z,4.25
2022-10-03T03:49:10.897Z,5.17
2022-10-03T03:51:54.735Z,5.22
2022-10-03T03:54:55.256Z,4.97
2022-10-03T03:57:47.979Z,5.37
2022-10-03T04:00:22.060Z,5.05
2022-10-03T04:02:59.646Z,5.15
2022-10-03T04:05:57.148Z,4.97
2022-10-03T04:08:51.793Z,5.40
2022-10-03T04:11:45.542Z,4.72
2022-10-03T04:14:17.163Z,4.78
2022-10-03T04:17:16.572Z,5.78
2022-10-03T04:20:06.493Z,4.90
2022-10-03T04:22:54.704Z,4.72
2022-10-03T04:25:54.810Z,6.62
2022-10-03T04:28:26.774Z,6.60
2022-10-03T04:31:26.076Z,5.40
2022-10-03T04:34:03.990Z,4.92
2022-10-03T04:36:56.101Z,4.92
2022-10-03T04:39:49.915Z,5.42
2022-10-03T04:42:48.354Z,5.05
2022-10-03T04:45:22.365Z,4.37
2022-10-03T04:48:16.018Z,5.83
2022-10-03T04:50:47.615Z,5.70
2022-10-03T04:53:24.663Z,4.28
2022-10-03T04:55:56.270Z,4.15
2022-10-03T04:58:30.560Z,5.00
2022-10-03T05:01:20.262Z,4.75
2022-10-03T05:03:57.949Z,3.95
2022-10-03T05:06:48.614Z,4.53
2022-10-03T05:09:49.427Z,4.17
2022-10-03T05:12:53.791Z,4.10
2022-10-03T05:15:31.689Z,4.40
2022-10-03T05:18:03.309Z,4.40
2022-10-03T05:20:47.103Z,4.17
2022-10-03T05:23:34.997Z,4.28
2022-10-03T05:26:39.114Z,4.20
2022-10-03T05:28:50.151Z,4.22
2022-10-03T05:31:36.741Z,4.10
2022-10-03T05:34:11.244Z,6.25
2022-10-03T05:36:59.201Z,4.65
2022-10-03T05:39:36.106Z,4.60
2022-10-03T05:42:27.404Z,4.50
2022-10-03T05:45:15.319Z,4.67
2022-10-03T05:47:52.934Z,5.67
2022-10-03T05:50:42.701Z,6.53
2022-10-03T05:53:42.549Z,6.45
2022-10-03T05:56:16.721Z,6.55
2022-10-03T05:59:12.169Z,6.97
2022-10-03T06:01:52.855Z,6.28
2022-10-03T06:04:27.484Z,6.78
2022-10-03T06:07:27.137Z,7.10
2022-10-03T06:10:00.427Z,9.85
2022-10-03T06:13:16.973Z,15.40
2022-10-03T06:15:53.086Z,12.43
2022-10-03T06:18:58.094Z,7.25
2022-10-03T06:21:32.315Z,5.90
2022-10-03T06:24:21.731Z,6.15
2022-10-03T06:27:21.861Z,5.20
2022-10-03T06:30:18.967Z,5.08
2022-10-03T06:32:51.171Z,6.17
2022-10-03T06:35:39.533Z,6.40
2022-10-03T06:38:23.287Z,5.70
2022-10-03T06:41:17.405Z,5.17
2022-10-03T06:44:03.988Z,5.15
2022-10-03T06:46:51.969Z,5.15
2022-10-03T06:49:58.953Z,5.53
2022-10-03T06:52:52.814Z,5.37
2022-10-03T06:55:53.152Z,4.70
2022-10-03T06:58:51.045Z,5.65
2022-10-03T07:01:43.054Z,4.17
2022-10-03T07:04:35.017Z,5.03
2022-10-03T07:07:30.347Z,4.80
2022-10-03T07:10:19.726Z,4.92
2022-10-03T07:13:27.558Z,5.03
2022-10-03T07:16:26.992Z,5.25
2022-10-03T07:19:10.964Z,5.85
2022-10-03T07:22:18.611Z,5.00
2022-10-03T07:25:06.858Z,5.40
2022-10-03T07:28:05.061Z,6.45
2022-10-03T07:31:09.911Z,5.75
2022-10-03T07:34:17.413Z,5.50
2022-10-03T07:37:18.521Z,6.55
2022-10-03T07:39:55.676Z,6.17
2022-10-03T07:42:48.196Z,7.20
2022-10-03T07:45:39.858Z,7.30
2022-10-03T07:48:17.321Z,6.90
2022-10-03T07:51:12.852Z,5.87
2022-10-03T07:53:53.515Z,6.12
2022-10-03T07:57:02.110Z,5.67
2022-10-03T07:59:53.736Z,5.53
2022-10-03T08:02:28.198Z,6.03
2022-10-03T08:05:14.975Z,5.62
2022-10-03T08:08:16.101Z,5.42
2022-10-03T08:11:14.861Z,6.40
2022-10-03T08:14:03.087Z,5.97
2022-10-03T08:17:06.070Z,5.75
2022-10-03T08:20:25.371Z,6.03
2022-10-03T08:23:43.028Z,7.05
2022-10-03T08:26:34.025Z,6.28
2022-10-03T08:29:53.534Z,6.15
2022-10-03T08:35:35.305Z,6.83
2022-10-03T08:38:18.717Z,6.40
2022-10-03T08:41:26.502Z,6.20
2022-10-03T08:44:33.143Z,7.20
2022-10-03T08:47:17.060Z,6.67
2022-10-03T08:50:39.928Z,6.33
2022-10-03T08:53:22.825Z,7.10
2022-10-03T08:55:59.920Z,5.92
2022-10-03T08:58:43.624Z,6.08
2022-10-03T09:01:15.215Z,6.50
2022-10-03T09:03:47.730Z,6.00
2022-10-03T09:06:34.296Z,5.80
2022-10-03T09:09:20.892Z,6.83
2022-10-03T09:11:50.656Z,5.35
2022-10-03T09:14:23.402Z,5.30
2022-10-03T09:19:23.625Z,5.60
2022-10-03T09:21:53.492Z,6.00
2022-10-03T09:24:44.448Z,5.67
2022-10-03T09:27:31.509Z,5.25
2022-10-03T09:30:01.265Z,6.10
2022-10-03T09:32:40.077Z,5.35
2022-10-03T09:35:18.910Z,5.58
2022-10-03T09:37:48.669Z,5.80
2022-10-03T09:40:21.135Z,5.83
2022-10-03T09:42:50.886Z,5.62
2022-10-03T09:45:24.214Z,5.60
2022-10-03T09:48:10.564Z,5.08
2022-10-03T09:50:56.814Z,5.05
2022-10-03T09:53:30.195Z,5.20
2022-10-03T09:56:16.631Z,5.30
2022-10-03T09:58:55.834Z,5.28
2022-10-03T10:01:38.051Z,3.77
2022-10-03T10:04:43.284Z,3.40
2022-10-03T10:07:08.042Z,3.10
2022-10-03T10:09:54.274Z,3.83
2022-10-03T10:12:24.003Z,2.98
2022-10-03T10:14:56.422Z,3.02
2022-10-03T10:17:38.330Z,3.17
2022-10-03T10:20:23.465Z,3.20
2022-10-03T10:22:56.165Z,3.10
2022-10-03T10:25:28.952Z,2.87
2022-10-03T10:28:15.399Z,2.33
2022-10-03T10:31:00.471Z,2.40
2022-10-03T10:33:47.081Z,2.20
2022-10-03T10:36:35.192Z,2.43
2022-10-03T10:39:04.972Z,2.20
2022-10-03T10:41:34.713Z,2.08
2022-10-03T10:44:16.738Z,2.20
2022-10-03T10:46:49.445Z,2.25
2022-10-03T10:49:37.554Z,2.00
2022-10-03T10:52:11.723Z,1.77
2022-10-03T10:54:44.438Z,1.90
2022-10-03T10:57:24.365Z,1.60
2022-10-03T11:00:02.901Z,1.57
2022-10-03T11:02:35.539Z,1.70
2022-10-03T11:05:08.313Z,1.50
2022-10-03T11:07:38.070Z,1.95
2022-10-03T11:10:24.473Z,1.67
2022-10-03T11:12:58.630Z,1.72
2022-10-03T11:15:28.378Z,2.12
2022-10-03T11:18:15.507Z,1.82
2022-10-03T11:21:02.048Z,1.87
2022-10-03T11:23:49.993Z,2.20
2022-10-03T11:26:38.669Z,1.52
2022-10-03T11:29:25.243Z,1.95
2022-10-03T11:31:55.063Z,1.77
2022-10-03T11:34:42.664Z,1.57
2022-10-03T11:37:24.341Z,1.40
2022-10-03T11:39:54.111Z,1.32
2022-10-03T11:42:23.853Z,1.62
2022-10-03T11:44:53.609Z,1.62
2022-10-03T11:47:38.428Z,1.30
2022-10-03T11:50:13.961Z,1.35
2022-10-03T11:52:49.678Z,1.30
2022-10-03T11:55:31.705Z,1.30
2022-10-03T11:58:01.544Z,1.47
2022-10-03T12:00:31.314Z,1.30
2022-10-03T12:03:07.307Z,1.57
2022-10-03T12:05:40.087Z,1.67
2022-10-03T12:08:40.040Z,1.40
2022-10-03T12:11:18.989Z,1.37
2022-10-03T12:13:51.775Z,1.82
2022-10-03T12:16:27.604Z,1.20
2022-10-03T12:18:57.674Z,1.40
2022-10-03T12:21:44.101Z,1.65
2022-10-03T12:24:42.094Z,1.37
2022-10-03T12:27:13.517Z,4.37
2022-10-03T12:29:44.887Z,1.90
2022-10-03T12:32:17.508Z,1.55
2022-10-03T12:34:50.382Z,1.67
2022-10-03T12:37:26.152Z,2.10
2022-10-03T12:40:00.457Z,1.20
2022-10-03T12:42:33.260Z,1.20
2022-10-03T12:45:19.789Z,1.30
2022-10-03T12:47:56.592Z,1.40
2022-10-03T12:50:40.229Z,1.30
2022-10-03T12:53:16.004Z,1.85
2022-10-03T12:55:57.945Z,1.27
2022-10-03T12:58:27.764Z,1.40
2022-10-03T13:00:57.544Z,1.22
2022-10-03T13:03:52.050Z,1.30
2022-10-03T13:07:02.221Z,1.20
2022-10-03T13:09:16.096Z,1.15
2022-10-03T13:11:51.617Z,1.30
2022-10-03T13:14:39.164Z,1.15
2022-10-03T13:17:14.808Z,1.37
2022-10-03T13:19:47.293Z,1.70
2022-10-03T13:22:33.039Z,1.33
2022-10-03T13:25:07.251Z,1.10
2022-10-03T13:27:37.008Z,1.32
2022-10-03T13:30:09.463Z,1.20
2022-10-03T13:32:39.330Z,1.42
2022-10-03T13:35:27.097Z,1.30
2022-10-03T13:37:59.367Z,1.10
2022-10-03T13:40:29.134Z,1.40
2022-10-03T13:42:59.137Z,1.20
2022-10-03T13:45:28.293Z,1.55
2022-10-03T13:48:07.254Z,1.33
2022-10-03T13:50:49.089Z,1.50
2022-10-03T13:53:32.358Z,1.15
2022-10-03T13:56:02.747Z,1.20
2022-10-03T13:58:50.226Z,1.30
2022-10-03T14:01:27.092Z,1.40
2022-10-03T14:03:56.921Z,1.30
2022-10-03T14:06:26.700Z,1.32
2022-10-03T14:08:56.521Z,1.30
2022-10-03T14:11:26.931Z,1.27
2022-10-03T14:13:56.705Z,1.40
2022-10-03T14:16:39.771Z,1.40
2022-10-03T14:19:27.736Z,2.15
2022-10-03T14:22:03.710Z,1.50
2022-10-03T14:24:37.337Z,1.30
2022-10-03T14:27:16.325Z,1.27
2022-10-03T14:29:55.130Z,1.60
2022-10-03T14:32:46.641Z,1.20
2022-10-03T14:35:08.111Z,1.25
2022-10-03T14:37:39.577Z,1.40
2022-10-03T14:40:18.283Z,1.50
2022-10-03T14:42:57.006Z,1.47
2022-10-03T14:45:26.806Z,1.40
2022-10-03T14:47:56.585Z,1.30
2022-10-03T14:50:26.338Z,1.20
2022-10-03T14:53:00.802Z,1.60
2022-10-03T14:55:31.662Z,1.10
2022-10-03T14:58:11.161Z,1.50
2022-10-03T15:00:41.544Z,1.30
2022-10-03T15:03:20.575Z,1.20
2022-10-03T15:05:59.929Z,1.40
2022-10-03T15:08:29.704Z,1.25
2022-10-03T15:10:58.716Z,1.60
2022-10-03T15:13:28.889Z,1.10
2022-10-03T15:15:57.542Z,1.20
2022-10-03T15:18:26.344Z,1.30
2022-10-03T15:20:58.147Z,1.40
2022-10-03T15:23:31.057Z,1.50
2022-10-03T15:25:59.637Z,1.20
2022-10-03T15:28:29.646Z,1.30
2022-10-03T15:30:59.677Z,1.15
2022-10-03T15:33:29.384Z,1.40
2022-10-03T15:35:59.285Z,1.42
2022-10-03T15:38:29.025Z,1.37
2022-10-03T15:41:10.760Z,1.30
2022-10-03T15:43:53.003Z,1.50
2022-10-03T15:46:28.869Z,1.50
2022-10-03T15:48:58.731Z,1.20
2022-10-03T15:51:28.193Z,1.50
2022-10-03T15:53:58.287Z,1.37
2022-10-03T15:56:29.729Z,1.52
2022-10-03T15:58:59.774Z,1.67
2022-10-03T16:01:29.375Z,2.02
2022-10-03T16:04:04.779Z,1.50
2022-10-03T16:06:35.996Z,1.60
2022-10-03T16:09:34.366Z,1.50
2022-10-03T16:12:19.036Z,1.17
2022-10-03T16:14:54.525Z,1.30
2022-10-03T16:17:29.038Z,1.40
2022-10-03T16:20:00.667Z,1.40
2022-10-03T16:22:43.945Z,1.30
2022-10-03T16:25:18.223Z,1.63
2022-10-03T16:28:02.105Z,1.55
2022-10-03T16:30:45.706Z,1.50
2022-10-03T16:33:40.897Z,1.70
2022-10-03T16:36:12.027Z,1.60
2022-10-03T16:38:43.728Z,1.60
2022-10-03T16:41:16.062Z,1.70
2022-10-03T16:43:55.662Z,1.50
2022-10-03T16:46:26.497Z,1.50
2022-10-03T16:49:15.651Z,1.77
2022-10-03T16:51:47.291Z,1.67
2022-10-03T16:54:18.989Z,2.00
2022-10-03T16:56:51.113Z,2.60
2022-10-03T16:59:21.942Z,3.55
2022-10-03T17:01:53.928Z,3.02
2022-10-03T17:04:25.378Z,2.55
2022-10-03T17:06:57.213Z,2.52
2022-10-03T17:09:43.819Z,1.87
2022-10-03T17:12:18.130Z,2.20
2022-10-03T17:14:48.514Z,2.60
2022-10-03T17:17:51.530Z,2.25
2022-10-03T17:20:40.660Z,2.33
2022-10-03T17:23:29.018Z,2.58
2022-10-03T17:26:21.792Z,2.70
2022-10-03T17:29:05.355Z,3.15
2022-10-03T17:31:48.930Z,2.62
2022-10-03T17:34:23.506Z,3.60
2022-10-03T17:36:58.045Z,3.40
2022-10-03T17:39:38.541Z,2.67
2022-10-03T17:42:34.266Z,4.08
2022-10-03T17:45:22.171Z,6.90
2022-10-03T17:47:56.594Z,7.40
2022-10-03T17:50:31.334Z,6.67
2022-10-03T17:53:01.183Z,4.40
2022-10-03T17:55:32.774Z,3.62
2022-10-03T17:58:07.850Z,3.40
2022-10-03T18:01:01.276Z,3.80
2022-10-03T18:03:35.477Z,3.72
2022-10-03T18:06:25.151Z,4.47
2022-10-03T18:08:55.961Z,2.72
2022-10-03T18:11:29.776Z,3.65
2022-10-03T18:14:04.175Z,3.83
2022-10-03T18:16:35.185Z,4.40
2022-10-03T18:19:21.605Z,5.22
2022-10-03T18:22:07.279Z,5.15
2022-10-03T18:24:41.445Z,5.12
2022-10-03T18:27:30.567Z,5.08
2022-10-03T18:30:06.409Z,5.10
2022-10-03T18:32:38.032Z,4.75
2022-10-03T18:35:12.877Z,3.72
2022-10-03T18:37:47.306Z,3.50
2022-10-03T18:40:47.395Z,3.33
2022-10-03T18:43:27.834Z,3.90
2022-10-03T18:46:03.658Z,4.05
2022-10-03T18:49:15.005Z,4.08
2022-10-03T18:51:38.429Z,3.50
2022-10-03T18:54:24.993Z,4.20
2022-10-03T18:57:05.270Z,4.30
2022-10-03T18:59:36.884Z,4.70
2022-10-03T19:02:06.223Z,6.28
2022-10-03T19:04:43.958Z,4.25
2022-10-03T19:07:24.481Z,4.28
2022-10-03T19:10:18.405Z,4.30
2022-10-03T19:12:50.001Z,4.72
2022-10-03T19:15:43.630Z,4.12
2022-10-03T19:18:25.292Z,4.10
2022-10-03T19:20:59.809Z,3.70
2022-10-03T19:23:49.304Z,3.22
2022-10-03T19:26:26.708Z,4.22
2022-10-03T19:29:04.192Z,4.25
2022-10-03T19:31:49.058Z,4.08
2022-10-03T19:34:29.722Z,4.08
2022-10-03T19:37:00.483Z,5.55
2022-10-03T19:39:32.432Z,5.90
2022-10-03T19:42:23.482Z,5.70
2022-10-03T19:44:53.817Z,5.87
2022-10-03T19:47:30.375Z,5.95
2022-10-03T19:50:08.520Z,5.70
2022-10-03T19:52:42.152Z,6.05
2022-10-03T19:55:14.213Z,6.08
2022-10-03T19:57:45.862Z,6.20
2022-10-03T20:00:21.825Z,4.78
2022-10-03T20:02:59.112Z,5.12
2022-10-03T20:05:33.654Z,4.55
2022-10-03T20:08:05.421Z,4.00
2022-10-03T20:11:05.277Z,4.15
2022-10-03T20:13:34.064Z,4.95
2022-10-03T20:16:05.012Z,4.20
2022-10-03T20:18:35.342Z,4.50
2022-10-03T20:21:05.770Z,4.47
2022-10-03T20:23:35.869Z,3.25
2022-10-03T20:26:10.346Z,3.72
2022-10-03T20:28:52.609Z,2.87
2022-10-03T20:31:27.102Z,3.70
2022-10-03T20:33:57.633Z,3.95
2022-10-03T20:36:49.928Z,3.95
2022-10-03T20:39:41.261Z,3.87
2022-10-03T20:42:18.743Z,4.25
2022-10-03T20:44:56.555Z,3.72
2022-10-03T20:47:55.139Z,5.10
2022-10-03T20:50:44.575Z,3.02
2022-10-03T20:53:22.409Z,3.37
2022-10-03T20:56:14.869Z,3.72
2022-10-03T20:58:51.081Z,4.25
2022-10-03T21:01:28.343Z,4.00
2022-10-03T21:04:33.118Z,3.77
2022-10-03T21:07:04.772Z,4.10
2022-10-03T21:09:47.165Z,3.55
2022-10-03T21:12:27.519Z,3.83
2022-10-03T21:15:07.662Z,3.83
2022-10-03T21:17:37.441Z,3.45
2022-10-03T21:20:11.634Z,3.62
2022-10-03T21:22:42.074Z,4.42
2022-10-03T21:25:13.699Z,4.00
2022-10-03T21:27:45.406Z,4.10
2022-10-03T21:30:19.942Z,3.55
2022-10-03T21:32:57.201Z,3.65
2022-10-03T21:35:34.021Z,4.00
2022-10-03T21:38:29.058Z,4.70
2022-10-03T21:41:18.488Z,4.25
2022-10-03T21:44:04.865Z,4.45
2022-10-03T21:46:45.295Z,4.75
2022-10-03T21:49:34.572Z,4.55
2022-10-03T21:52:29.510Z,5.22
2022-10-03T21:55:16.134Z,4.33
2022-10-03T21:58:12.396Z,4.87
2022-10-03T22:01:03.649Z,4.97
2022-10-03T22:03:43.843Z,5.00
2022-10-03T22:06:36.110Z,5.50
2022-10-03T22:09:07.732Z,5.77
2022-10-03T22:11:41.303Z,4.85
2022-10-03T22:14:22.374Z,4.75
2022-10-03T22:17:03.984Z,5.40
2022-10-03T22:19:38.112Z,5.45
2022-10-03T22:22:33.492Z,5.37
2022-10-03T22:25:26.671Z,31.55
2022-10-03T22:30:40.008Z,6.28
2022-10-03T22:33:29.519Z,5.72
2022-10-03T22:36:03.740Z,6.00
2022-10-03T22:38:36.282Z,5.20
2022-10-03T22:41:07.935Z,5.53
2022-10-03T22:43:39.013Z,5.60
2022-10-03T22:46:10.245Z,5.75
2022-10-03T22:48:44.680Z,5.60
2022-10-03T22:51:15.952Z,6.50
2022-10-03T22:53:50.663Z,6.00
2022-10-03T22:56:40.333Z,5.35
2022-10-03T22:59:29.732Z,5.35
2022-10-03T23:02:01.219Z,5.58
2022-10-03T23:04:35.586Z,5.45
2022-10-03T23:07:10.066Z,5.40
2022-10-03T23:10:11.605Z,5.90
2022-10-03T23:13:17.424Z,5.90
2022-10-03T23:15:49.298Z,5.72
2022-10-03T23:18:52.853Z,5.77
2022-10-03T23:21:21.555Z,5.22
2022-10-03T23:23:55.986Z,6.37
2022-10-03T23:26:53.723Z,5.75
2022-10-03T23:29:22.715Z,5.95
2022-10-03T23:32:06.359Z,5.72
2022-10-03T23:34:41.481Z,6.03
2022-10-03T23:37:16.315Z,5.87
2022-10-03T23:40:02.980Z,6.00
2022-10-03T23:42:40.319Z,5.92
2022-10-03T23:45:11.929Z,6.10
2022-10-03T23:47:59.598Z,5.87
2022-10-03T23:50:46.519Z,5.33
2022-10-03T23:53:21.143Z,5.90
2022-10-03T23:55:49.856Z,6.00
2022-10-03T23:58:21.459Z,6.60
